createdAt,value
2019-05-07T00:01:13.555Z,97935.05
2019-05-07T00:03:42.393Z,97931.80
2019-05-07T00:06:12.359Z,97937.20
2019-05-07T00:08:44.656Z,97930.52
2019-05-07T00:11:12.609Z,97934.08
2019-05-07T00:13:44.151Z,97936.77
2019-05-07T00:16:12.790Z,97934.79
2019-05-07T00:18:42.918Z,97931.16
2019-05-07T00:21:12.585Z,97942.59
2019-05-07T00:23:43.280Z,97929.36
2019-05-07T00:26:13.226Z,97931.55
2019-05-07T00:28:43.195Z,97932.66
2019-05-07T00:31:12.480Z,97932.66
2019-05-07T00:33:43.317Z,97931.81
2019-05-07T00:36:27.295Z,97932.38
2019-05-07T00:39:03.293Z,97928.42
2019-05-07T00:41:42.672Z,97939.26
2019-05-07T00:44:13.568Z,97935.42
2019-05-07T00:46:42.812Z,97926.88
2019-05-07T00:49:12.691Z,97929.13
2019-05-07T00:51:42.523Z,97935.30
2019-05-07T00:54:12.278Z,97930.28
2019-05-07T00:56:42.882Z,97927.77
2019-05-07T00:59:13.116Z,97926.19
2019-05-07T01:01:43.269Z,97924.05
2019-05-07T01:04:12.130Z,97923.80
2019-05-07T01:06:42.355Z,97924.38
2019-05-07T01:09:12.276Z,97924.55
2019-05-07T01:11:42.898Z,97933.31
2019-05-07T01:14:12.368Z,97930.56
2019-05-07T01:16:42.042Z,97927.68
2019-05-07T01:19:12.587Z,97928.66
2019-05-07T01:21:43.288Z,97934.94
2019-05-07T01:24:12.435Z,97933.64
2019-05-07T01:26:42.574Z,97936.23
2019-05-07T01:29:12.787Z,97937.32
2019-05-07T01:31:48.398Z,97930.84
2019-05-07T01:34:25.252Z,97932.90
2019-05-07T01:36:54.149Z,97927.66
2019-05-07T01:39:23.306Z,97934.03
2019-05-07T01:41:52.485Z,97925.67
2019-05-07T01:44:22.099Z,97932.50
2019-05-07T01:46:52.950Z,97924.58
2019-05-07T01:49:23.879Z,97922.73
2019-05-07T01:51:52.995Z,97916.16
2019-05-07T01:54:23.796Z,97911.77
2019-05-07T01:56:52.739Z,97914.81
2019-05-07T01:59:22.489Z,97917.34
2019-05-07T02:01:53.030Z,97924.73
2019-05-07T02:04:42.828Z,97929.27
2019-05-07T02:07:15.527Z,97931.02
2019-05-07T02:09:48.435Z,97932.36
2019-05-07T02:12:26.465Z,97927.37
2019-05-07T02:14:55.316Z,97929.16
2019-05-07T02:17:24.152Z,97923.67
2019-05-07T02:19:53.047Z,97924.81
2019-05-07T02:22:22.677Z,97919.22
2019-05-07T02:24:52.369Z,97923.75
2019-05-07T02:27:22.079Z,97924.48
2019-05-07T02:29:52.832Z,97925.12
2019-05-07T02:32:24.064Z,97921.47
2019-05-07T02:34:54.509Z,97929.70
2019-05-07T02:37:35.713Z,97922.78
2019-05-07T02:40:14.132Z,97924.12
2019-05-07T02:42:44.313Z,97922.16
2019-05-07T02:45:33.242Z,97927.52
2019-05-07T02:50:53.850Z,97924.23
2019-05-07T02:53:53.614Z,97922.94
2019-05-07T02:56:23.605Z,97914.55
2019-05-07T02:58:52.880Z,97917.27
2019-05-07T03:01:22.645Z,97913.03
2019-05-07T03:03:52.984Z,97917.89
2019-05-07T03:06:23.392Z,97908.83
2019-05-07T03:08:53.435Z,97920.13
2019-05-07T03:11:23.015Z,97908.52
2019-05-07T03:13:53.742Z,97918.11
2019-05-07T03:16:38.737Z,97914.37
2019-05-07T03:18:53.384Z,97916.19
2019-05-07T03:21:23.538Z,97914.58
2019-05-07T03:24:03.548Z,97910.88
2019-05-07T03:26:36.870Z,97912.22
2019-05-07T03:29:12.851Z,97916.17
2019-05-07T03:31:59.214Z,97917.69
2019-05-07T03:34:47.488Z,97916.44
2019-05-07T03:37:18.969Z,97920.36
2019-05-07T03:39:47.752Z,97913.94
2019-05-07T03:42:16.928Z,97913.17
2019-05-07T03:45:13.681Z,97922.31
2019-05-07T03:47:45.028Z,97917.14
2019-05-07T03:50:14.932Z,97914.15
2019-05-07T03:52:44.111Z,97908.98
2019-05-07T03:55:14.524Z,97912.09
2019-05-07T03:57:44.486Z,97915.66
2019-05-07T04:00:13.676Z,97913.06
2019-05-07T04:02:43.758Z,97912.22
2019-05-07T04:05:14.257Z,97914.44
2019-05-07T04:07:43.603Z,97915.66
2019-05-07T04:10:14.897Z,97911.33
2019-05-07T04:12:44.290Z,97907.84
2019-05-07T04:15:15.495Z,97903.52
2019-05-07T04:17:46.271Z,97905.66
2019-05-07T04:20:15.530Z,97907.28
2019-05-07T04:22:44.783Z,97909.33
2019-05-07T04:25:38.892Z,97909.66
2019-05-07T04:28:19.729Z,97905.69
2019-05-07T04:30:48.565Z,97910.28
2019-05-07T04:33:19.210Z,97914.88
2019-05-07T04:35:53.884Z,97915.65
2019-05-07T04:38:23.863Z,97922.88
2019-05-07T04:40:53.776Z,97929.17
2019-05-07T04:43:23.513Z,97929.41
2019-05-07T04:45:53.679Z,97930.53
2019-05-07T04:48:23.438Z,97934.64
2019-05-07T04:50:54.716Z,97934.42
2019-05-07T04:53:24.005Z,97929.09
2019-05-07T04:55:53.724Z,97934.90
2019-05-07T04:58:24.881Z,97930.34
2019-05-07T05:00:53.919Z,97924.45
2019-05-07T05:03:25.016Z,97927.22
2019-05-07T05:05:53.978Z,97931.27
2019-05-07T05:08:23.650Z,97927.09
2019-05-07T05:10:53.684Z,97927.58
2019-05-07T05:13:23.864Z,97926.84
2019-05-07T05:15:53.043Z,97921.81
2019-05-07T05:18:22.156Z,97929.80
2019-05-07T05:21:22.660Z,97934.05
2019-05-07T05:23:56.385Z,97920.59
2019-05-07T05:26:25.212Z,97924.13
2019-05-07T05:28:54.044Z,97933.67
2019-05-07T05:31:22.858Z,97935.05
2019-05-07T05:33:52.669Z,97934.91
2019-05-07T05:36:22.307Z,97938.23
2019-05-07T05:38:52.994Z,97938.16
2019-05-07T05:41:24.388Z,97940.18
2019-05-07T05:44:07.907Z,97939.34
2019-05-07T05:46:36.742Z,97934.45
2019-05-07T05:49:05.740Z,97939.56
2019-05-07T05:51:46.389Z,97941.10
2019-05-07T05:54:32.635Z,97939.25
2019-05-07T05:57:22.846Z,97940.52
2019-05-07T06:00:13.029Z,97939.50
2019-05-07T06:03:11.885Z,97944.08
2019-05-07T06:06:01.977Z,97935.94
2019-05-07T06:08:39.323Z,97929.63
2019-05-07T06:11:45.466Z,97926.73
2019-05-07T06:14:26.402Z,97931.25
2019-05-07T06:17:04.210Z,97925.58
2019-05-07T06:19:43.639Z,97922.16
2019-05-07T06:22:30.107Z,97926.88
2019-05-07T06:25:08.158Z,97924.94
2019-05-07T06:27:37.028Z,97923.02
2019-05-07T06:30:06.698Z,97923.94
2019-05-07T06:32:35.566Z,97931.53
2019-05-07T06:35:04.551Z,97928.13
2019-05-07T06:37:33.489Z,97928.53
2019-05-07T06:40:20.360Z,97920.09
2019-05-07T06:43:13.078Z,97919.75
2019-05-07T06:45:45.966Z,97914.23
2019-05-07T06:48:14.890Z,97926.90
2019-05-07T06:50:56.904Z,97925.17
2019-05-07T06:53:32.992Z,97923.42
2019-05-07T06:56:04.143Z,97925.30
2019-05-07T06:58:55.045Z,97928.52
2019-05-07T07:01:44.015Z,97924.69
2019-05-07T07:04:37.832Z,97928.48
2019-05-07T07:07:36.572Z,97925.73
2019-05-07T07:10:29.191Z,97924.08
2019-05-07T07:12:58.152Z,97920.58
2019-05-07T07:15:27.004Z,97921.13
2019-05-07T07:17:55.824Z,97911.22
2019-05-07T07:20:24.623Z,97913.78
2019-05-07T07:22:54.441Z,97917.02
2019-05-07T07:25:23.338Z,97908.23
2019-05-07T07:27:52.266Z,97910.16
2019-05-07T07:30:37.607Z,97908.00
2019-05-07T07:33:07.457Z,97901.34
2019-05-07T07:35:37.396Z,97902.21
2019-05-07T07:38:23.832Z,97896.12
2019-05-07T07:41:02.123Z,97894.12
2019-05-07T07:43:32.513Z,97901.34
2019-05-07T07:46:02.187Z,97894.81
2019-05-07T07:48:32.065Z,97898.26
2019-05-07T07:51:03.205Z,97895.67
2019-05-07T07:53:35.266Z,97892.55
2019-05-07T07:56:48.865Z,97895.48
2019-05-07T07:59:22.134Z,97890.59
2019-05-07T08:01:55.563Z,97884.69
2019-05-07T08:04:24.425Z,97891.55
2019-05-07T08:07:03.046Z,97887.07
2019-05-07T08:09:33.154Z,97881.29
2019-05-07T08:12:02.759Z,97880.75
2019-05-07T08:14:32.543Z,97883.03
2019-05-07T08:17:03.288Z,97879.08
2019-05-07T08:19:32.961Z,97874.91
2019-05-07T08:22:03.050Z,97875.06
2019-05-07T08:24:33.059Z,97870.42
2019-05-07T08:27:02.579Z,97862.69
2019-05-07T08:29:32.834Z,97861.26
2019-05-07T08:32:39.471Z,97856.69
2019-05-07T08:35:18.546Z,97861.77
2019-05-07T08:37:47.611Z,97857.16
2019-05-07T08:40:17.556Z,97851.53
2019-05-07T08:42:46.444Z,97854.77
2019-05-07T08:45:33.205Z,97850.55
2019-05-07T08:48:05.360Z,97847.73
2019-05-07T08:50:34.328Z,97853.67
2019-05-07T08:53:03.243Z,97841.08
2019-05-07T08:55:32.339Z,97846.48
2019-05-07T08:58:02.212Z,97849.30
2019-05-07T09:00:32.581Z,97841.88
2019-05-07T09:03:01.742Z,97846.13
2019-05-07T09:05:32.363Z,97843.50
2019-05-07T09:08:02.239Z,97844.66
2019-05-07T09:10:32.484Z,97841.55
2019-05-07T09:13:02.772Z,97838.55
2019-05-07T09:15:32.185Z,97843.92
2019-05-07T09:18:02.202Z,97841.66
2019-05-07T09:20:32.141Z,97842.45
2019-05-07T09:23:02.106Z,97839.13
2019-05-07T09:25:32.984Z,97847.02
2019-05-07T09:28:02.629Z,97841.38
2019-05-07T09:30:56.825Z,97841.63
2019-05-07T09:33:33.036Z,97839.67
2019-05-07T09:36:03.040Z,97836.78
2019-05-07T09:38:32.804Z,97836.66
2019-05-07T09:41:04.388Z,97831.55
2019-05-07T09:43:33.163Z,97831.05
2019-05-07T09:46:02.658Z,97823.28
2019-05-07T09:48:33.874Z,97826.58
2019-05-07T09:51:02.854Z,97826.62
2019-05-07T09:53:32.220Z,97818.60
2019-05-07T09:56:02.115Z,97821.59
2019-05-07T09:58:38.483Z,97817.03
2019-05-07T10:01:05.158Z,97819.02
2019-05-07T10:03:34.089Z,97812.38
2019-05-07T10:06:03.005Z,97813.13
2019-05-07T10:08:32.890Z,97805.37
2019-05-07T10:11:02.824Z,97809.61
2019-05-07T10:13:52.414Z,97802.39
2019-05-07T10:16:28.435Z,97804.77
2019-05-07T10:18:57.541Z,97803.72
2019-05-07T10:21:26.471Z,97803.98
2019-05-07T10:23:56.365Z,97800.63
2019-05-07T10:26:25.174Z,97802.19
2019-05-07T10:28:54.041Z,97797.52
2019-05-07T10:31:23.211Z,97796.34
2019-05-07T10:33:52.490Z,97795.25
2019-05-07T10:36:27.345Z,97785.54
2019-05-07T10:38:56.139Z,97786.71
2019-05-07T10:41:26.220Z,97783.09
2019-05-07T10:43:55.059Z,97780.55
2019-05-07T10:47:02.081Z,97777.22
2019-05-07T10:49:37.198Z,97776.88
2019-05-07T10:52:06.129Z,97773.56
2019-05-07T10:54:34.975Z,97766.96
2019-05-07T10:57:03.900Z,97772.09
2019-05-07T10:59:33.171Z,97765.88
2019-05-07T11:02:16.578Z,97766.71
2019-05-07T11:04:46.030Z,97767.95
2019-05-07T11:07:15.195Z,97764.25
2019-05-07T11:09:44.118Z,97762.20
2019-05-07T11:12:13.341Z,97762.70
2019-05-07T11:14:42.220Z,97760.07
2019-05-07T11:17:29.995Z,97755.05
2019-05-07T11:19:58.925Z,97750.98
2019-05-07T11:22:28.329Z,97753.14
2019-05-07T11:24:57.373Z,97753.00
2019-05-07T11:27:27.280Z,97744.61
2019-05-07T11:29:56.086Z,97747.14
2019-05-07T11:32:24.913Z,97736.70
2019-05-07T11:34:56.370Z,97738.29
2019-05-07T11:37:25.711Z,97738.75
2019-05-07T11:39:55.551Z,97735.49
2019-05-07T11:42:45.127Z,97728.11
2019-05-07T11:45:20.256Z,97725.64
2019-05-07T11:47:54.649Z,97726.83
2019-05-07T11:50:44.149Z,97728.43
2019-05-07T11:53:14.834Z,97714.41
2019-05-07T11:55:43.832Z,97721.52
2019-05-07T11:58:12.998Z,97709.08
2019-05-07T12:01:07.446Z,97716.68
2019-05-07T12:03:40.289Z,97714.61
2019-05-07T12:06:12.296Z,97701.30
2019-05-07T12:08:45.896Z,97702.82
2019-05-07T12:11:11.886Z,97700.26
2019-05-07T12:13:42.742Z,97700.73
2019-05-07T12:16:14.101Z,97691.04
2019-05-07T12:18:43.160Z,97691.19
2019-05-07T12:21:20.190Z,97696.83
2019-05-07T12:23:42.869Z,97691.00
2019-05-07T12:26:12.561Z,97680.45
2019-05-07T12:28:45.115Z,97684.25
2019-05-07T12:31:27.419Z,97676.14
2019-05-07T12:34:03.216Z,97675.66
2019-05-07T12:36:32.215Z,97672.80
2019-05-07T12:39:02.361Z,97665.66
2019-05-07T12:41:33.743Z,97666.94
2019-05-07T12:44:06.326Z,97666.13
2019-05-07T12:46:35.697Z,97668.77
2019-05-07T12:49:04.897Z,97676.99
2019-05-07T12:51:53.851Z,97667.08
2019-05-07T12:54:36.719Z,97664.08
2019-05-07T12:57:05.690Z,97661.34
2019-05-07T12:59:34.494Z,97659.45
2019-05-07T13:02:36.426Z,97655.86
2019-05-07T13:04:52.155Z,97658.38
2019-05-07T13:07:38.918Z,97657.77
2019-05-07T13:10:08.565Z,97657.34
2019-05-07T13:12:37.718Z,97653.81
2019-05-07T13:15:20.548Z,97650.34
2019-05-07T13:17:37.858Z,97646.33
2019-05-07T13:20:06.880Z,97640.80
2019-05-07T13:22:38.526Z,97641.56
2019-05-07T13:25:09.523Z,97637.98
2019-05-07T13:27:40.122Z,97633.49
2019-05-07T13:30:09.250Z,97633.83
2019-05-07T13:32:39.491Z,97634.38
2019-05-07T13:35:08.363Z,97638.53
2019-05-07T13:37:41.773Z,97634.41
2019-05-07T13:40:20.173Z,97632.80
2019-05-07T13:42:59.099Z,97632.09
2019-05-07T13:45:53.032Z,97635.38
2019-05-07T13:48:22.580Z,97634.17
2019-05-07T13:50:51.711Z,97625.83
2019-05-07T13:53:23.564Z,97628.55
2019-05-07T13:55:52.506Z,97626.31
2019-05-07T13:58:23.383Z,97626.36
2019-05-07T14:01:20.142Z,97611.81
2019-05-07T14:03:48.955Z,97604.62
2019-05-07T14:06:36.846Z,97604.33
2019-05-07T14:09:10.524Z,97606.03
2019-05-07T14:11:41.959Z,97594.98
2019-05-07T14:14:12.222Z,97598.72
2019-05-07T14:16:44.693Z,97594.34
2019-05-07T14:19:13.023Z,97595.83
2019-05-07T14:21:42.406Z,97593.48
2019-05-07T14:24:12.337Z,97598.48
2019-05-07T14:26:42.967Z,97591.52
2019-05-07T14:29:11.845Z,97591.16
2019-05-07T14:31:42.611Z,97588.39
2019-05-07T14:34:25.898Z,97585.16
2019-05-07T14:37:16.553Z,97581.08
2019-05-07T14:39:45.411Z,97584.02
2019-05-07T14:42:22.062Z,97582.48
2019-05-07T14:44:52.761Z,97577.17
2019-05-07T14:47:22.420Z,97582.83
2019-05-07T14:49:53.021Z,97579.84
2019-05-07T14:52:31.958Z,97572.77
2019-05-07T14:54:52.653Z,97575.44
2019-05-07T14:57:22.186Z,97572.22
2019-05-07T14:59:52.378Z,97570.26
2019-05-07T15:02:23.449Z,97557.55
2019-05-07T15:04:52.603Z,97571.97
2019-05-07T15:07:22.642Z,97569.38
2019-05-07T15:09:51.952Z,97567.75
2019-05-07T15:12:23.086Z,97567.75
2019-05-07T15:14:52.753Z,97565.30
2019-05-07T15:17:28.871Z,97565.45
2019-05-07T15:19:57.730Z,97565.69
2019-05-07T15:22:47.118Z,97563.70
2019-05-07T15:25:14.155Z,97568.18
2019-05-07T15:27:43.523Z,97568.48
2019-05-07T15:30:13.426Z,97573.40
2019-05-07T15:32:42.844Z,97574.23
2019-05-07T15:35:12.595Z,97565.92
2019-05-07T15:37:42.731Z,97560.74
2019-05-07T15:40:11.880Z,97560.14
2019-05-07T15:42:42.186Z,97561.09
2019-05-07T15:45:12.554Z,97556.48
2019-05-07T15:47:45.096Z,97556.70
2019-05-07T15:50:14.080Z,97557.72
2019-05-07T15:52:58.240Z,97557.62
2019-05-07T15:55:19.178Z,97564.93
2019-05-07T15:57:48.451Z,97563.13
2019-05-07T16:00:21.784Z,97557.15
2019-05-07T16:02:54.340Z,97555.55
2019-05-07T16:05:23.159Z,97557.52
2019-05-07T16:07:52.658Z,97551.77
2019-05-07T16:10:23.344Z,97550.92
2019-05-07T16:12:53.226Z,97542.61
2019-05-07T16:15:22.610Z,97540.41
2019-05-07T16:17:59.020Z,97543.00
2019-05-07T16:20:27.951Z,97543.59
2019-05-07T16:23:13.561Z,97546.70
2019-05-07T16:25:32.851Z,97550.70
2019-05-07T16:28:04.828Z,97544.36
2019-05-07T16:30:32.854Z,97548.77
2019-05-07T16:33:02.312Z,97550.26
2019-05-07T16:35:32.016Z,97551.97
2019-05-07T16:38:01.201Z,97555.17
2019-05-07T16:40:34.669Z,97548.70
2019-05-07T16:43:04.270Z,97549.58
2019-05-07T16:45:33.226Z,97546.72
2019-05-07T16:48:03.220Z,97544.48
2019-05-07T16:50:33.574Z,97545.35
2019-05-07T16:53:02.990Z,97544.43
2019-05-07T16:55:36.821Z,97541.08
2019-05-07T16:58:14.549Z,97545.78
2019-05-07T17:00:46.266Z,97547.09
2019-05-07T17:03:23.133Z,97537.41
2019-05-07T17:05:52.401Z,97542.08
2019-05-07T17:08:46.170Z,97534.45
2019-05-07T17:11:15.030Z,97531.94
2019-05-07T17:13:44.024Z,97525.95
2019-05-07T17:16:12.936Z,97531.81
2019-05-07T17:18:41.877Z,97531.30
2019-05-07T17:21:12.334Z,97529.59
2019-05-07T17:23:44.717Z,97524.45
2019-05-07T17:26:11.900Z,97527.55
2019-05-07T17:28:42.529Z,97524.72
2019-05-07T17:31:12.371Z,97526.67
2019-05-07T17:33:42.470Z,97522.31
2019-05-07T17:36:12.068Z,97522.58
2019-05-07T17:38:42.845Z,97527.19
2019-05-07T17:41:19.985Z,97521.50
2019-05-07T17:43:42.431Z,97519.49
2019-05-07T17:46:12.279Z,97520.59
2019-05-07T17:48:42.872Z,97518.00
2019-05-07T17:51:32.337Z,97514.48
2019-05-07T17:54:01.162Z,97516.37
2019-05-07T17:56:31.865Z,97519.86
2019-05-07T17:59:02.684Z,97515.70
2019-05-07T18:01:50.019Z,97518.56
2019-05-07T18:04:17.712Z,97516.42
2019-05-07T18:06:46.712Z,97515.12
2019-05-07T18:09:15.696Z,97513.55
2019-05-07T18:11:44.581Z,97512.13
2019-05-07T18:14:14.055Z,97510.56
2019-05-07T18:16:56.282Z,97518.81
2019-05-07T18:19:25.887Z,97517.49
2019-05-07T18:22:14.465Z,97524.99
2019-05-07T18:24:43.433Z,97527.46
2019-05-07T18:27:24.130Z,97522.33
2019-05-07T18:30:03.863Z,97518.11
2019-05-07T18:32:37.435Z,97515.09
2019-05-07T18:35:06.580Z,97524.67
2019-05-07T18:37:52.465Z,97523.92
2019-05-07T18:40:22.123Z,97522.67
2019-05-07T18:42:52.503Z,97521.41
2019-05-07T18:45:23.507Z,97524.45
2019-05-07T18:47:52.413Z,97523.65
2019-05-07T18:50:27.527Z,97518.72
2019-05-07T18:52:56.508Z,97527.78
2019-05-07T18:55:25.391Z,97522.94
2019-05-07T18:57:54.323Z,97526.58
2019-05-07T19:00:31.613Z,97524.69
2019-05-07T19:02:59.903Z,97521.98
2019-05-07T19:05:28.811Z,97522.83
2019-05-07T19:08:05.445Z,97519.05
2019-05-07T19:10:36.024Z,97525.02
2019-05-07T19:13:05.242Z,97522.66
2019-05-07T19:15:34.355Z,97526.06
2019-05-07T19:18:03.374Z,97525.41
2019-05-07T19:20:33.386Z,97524.27
2019-05-07T19:23:08.285Z,97525.30
2019-05-07T19:25:43.366Z,97523.67
2019-05-07T19:28:14.943Z,97520.06
2019-05-07T19:33:32.849Z,97524.53
2019-05-07T19:36:02.104Z,97523.34
2019-05-07T19:38:32.326Z,97527.09
2019-05-07T19:41:02.159Z,97527.03
2019-05-07T19:43:32.882Z,97517.06
2019-05-07T19:46:02.845Z,97522.67
2019-05-07T19:48:32.381Z,97526.68
2019-05-07T19:51:02.950Z,97523.62
2019-05-07T19:53:35.844Z,97526.83
2019-05-07T19:56:12.968Z,97518.92
2019-05-07T19:58:43.010Z,97516.22
2019-05-07T20:01:13.721Z,97520.87
2019-05-07T20:03:52.868Z,97520.91
2019-05-07T20:06:23.440Z,97522.00
2019-05-07T20:08:53.716Z,97514.94
2019-05-07T20:11:36.969Z,97519.77
2019-05-07T20:14:06.030Z,97522.50
2019-05-07T20:16:37.007Z,97521.45
2019-05-07T20:19:05.988Z,97519.05
2019-05-07T20:21:35.037Z,97518.75
2019-05-07T20:24:03.952Z,97521.95
2019-05-07T20:29:12.171Z,97511.22
2019-05-07T20:31:42.339Z,97515.33
2019-05-07T20:34:13.242Z,97509.91
2019-05-07T20:36:42.799Z,97510.65
2019-05-07T20:39:13.092Z,97517.25
2019-05-07T20:41:43.106Z,97507.02
2019-05-07T20:44:12.980Z,97510.45
2019-05-07T20:46:42.277Z,97509.98
2019-05-07T20:49:13.129Z,97505.31
2019-05-07T20:51:42.030Z,97501.69
2019-05-07T20:54:27.716Z,97497.84
2019-05-07T20:57:05.790Z,97497.00
2019-05-07T20:59:34.693Z,97502.41
2019-05-07T21:02:03.898Z,97502.58
2019-05-07T21:04:33.143Z,97499.23
2019-05-07T21:07:02.305Z,97500.22
2019-05-07T21:09:33.283Z,97506.09
2019-05-07T21:12:02.133Z,97500.39
2019-05-07T21:14:32.445Z,97493.23
2019-05-07T21:17:01.453Z,97501.05
2019-05-07T21:19:33.109Z,97496.00
2019-05-07T21:22:03.134Z,97497.73
2019-05-07T21:24:33.767Z,97494.91
2019-05-07T21:27:02.766Z,97492.34
2019-05-07T21:29:32.711Z,97497.36
2019-05-07T21:32:03.319Z,97498.28
2019-05-07T21:34:32.630Z,97499.86
2019-05-07T21:37:03.308Z,97506.06
2019-05-07T21:39:33.012Z,97500.97
2019-05-07T21:42:02.098Z,97503.80
2019-05-07T21:44:32.615Z,97498.86
2019-05-07T21:47:03.883Z,97500.97
2019-05-07T21:49:32.846Z,97497.25
2019-05-07T21:52:02.067Z,97495.18
2019-05-07T21:54:48.718Z,97490.59
2019-05-07T21:57:34.878Z,97486.48
2019-05-07T22:00:23.153Z,97483.61
2019-05-07T22:02:52.681Z,97487.85
2019-05-07T22:05:22.417Z,97481.50
2019-05-07T22:07:54.176Z,97484.98
2019-05-07T22:10:22.359Z,97484.85
2019-05-07T22:12:52.002Z,97483.09
2019-05-07T22:15:22.432Z,97475.93
2019-05-07T22:17:52.074Z,97478.86
2019-05-07T22:20:20.988Z,97478.41
2019-05-07T22:22:52.033Z,97472.05
2019-05-07T22:25:22.270Z,97468.80
2019-05-07T22:27:52.998Z,97465.75
2019-05-07T22:30:28.029Z,97467.12
2019-05-07T22:33:02.501Z,97466.55
2019-05-07T22:35:35.226Z,97467.53
2019-05-07T22:38:04.390Z,97464.58
2019-05-07T22:40:33.170Z,97462.53
2019-05-07T22:43:02.208Z,97466.53
2019-05-07T22:45:32.222Z,97453.61
2019-05-07T22:48:02.793Z,97449.96
2019-05-07T22:50:33.154Z,97453.02
2019-05-07T22:53:02.249Z,97454.08
2019-05-07T22:55:32.663Z,97451.27
2019-05-07T22:58:09.446Z,97443.27
2019-05-07T23:00:42.716Z,97451.59
2019-05-07T23:03:12.401Z,97444.50
2019-05-07T23:05:42.221Z,97438.47
2019-05-07T23:08:12.797Z,97439.55
2019-05-07T23:10:42.117Z,97441.38
2019-05-07T23:13:12.982Z,97439.77
2019-05-07T23:15:42.948Z,97444.76
2019-05-07T23:18:13.054Z,97439.80
2019-05-07T23:20:42.700Z,97436.82
2019-05-07T23:23:14.099Z,97425.52
2019-05-07T23:25:43.132Z,97427.91
2019-05-07T23:28:12.635Z,97422.64
2019-05-07T23:30:42.155Z,97420.05
2019-05-07T23:33:12.592Z,97427.45
2019-05-07T23:35:42.141Z,97417.30
2019-05-07T23:38:12.187Z,97414.78
2019-05-07T23:41:02.144Z,97414.56
2019-05-07T23:43:31.018Z,97413.94
2019-05-07T23:46:02.109Z,97413.65
2019-05-07T23:48:32.126Z,97416.63
2019-05-07T23:51:02.060Z,97406.10
2019-05-07T23:53:31.714Z,97412.27
2019-05-07T23:56:02.789Z,97412.52
2019-05-07T23:58:32.663Z,97408.23
